Time;durP1;ratioP1;P1;durP2;ratioP2;P2;SDS_P1;SDS_P2;PMS_P1;PMS_P2;Temp;Humidity;BMP_temperature;BMP_pressure;BME280_temperature;BME280_humidity;BME280_pressure;Samples;Min_cycle;Max_cycle;Signal;HPM_P1;HPM_P2
2022/05/01 00:02:03;;;;;;;15.65;10.05;;;;;;;;;;5016228;28;20554;-59
2022/05/01 00:04:29;;;;;;;13.77;9.52;;;;;;;;;;5022184;28;20740;-59
2022/05/01 00:06:54;;;;;;;21.08;9.23;;;;;;;;;;5022831;28;20282;-59
2022/05/01 00:09:19;;;;;;;18.48;9.13;;;;;;;;;;5020783;28;20215;-59
2022/05/01 00:11:44;;;;;;;11.32;9.05;;;;;;;;;;5041619;28;21743;-59
2022/05/01 00:14:10;;;;;;;15.00;9.15;;;;;;;;;;5023090;28;20758;-59
2022/05/01 00:16:35;;;;;;;13.13;9.25;;;;;;;;;;5022542;28;20212;-59
2022/05/01 00:19:01;;;;;;;14.55;9.63;;;;;;;;;;5014325;28;20243;-59
2022/05/01 00:21:26;;;;;;;12.40;9.68;;;;;;;;;;5014191;28;20314;-59
2022/05/01 00:23:51;;;;;;;16.45;10.07;;;;;;;;;;5013961;28;20738;-59
2022/05/01 00:26:16;;;;;;;12.65;9.57;;;;;;;;;;5020950;28;20220;-59
2022/05/01 00:28:42;;;;;;;14.00;9.80;;;;;;;;;;5004291;28;20762;-59
2022/05/01 00:31:07;;;;;;;13.85;9.75;;;;;;;;;;5021251;28;20246;-59
2022/05/01 00:36:26;;;;;;;12.40;9.75;;;;;;;;;;5041089;28;20237;-59
2022/05/01 00:38:51;;;;;;;11.90;9.30;;;;;;;;;;5039194;28;20782;-59
2022/05/01 00:41:16;;;;;;;14.63;10.15;;;;;;;;;;5015019;28;20212;-60
2022/05/01 00:44:01;;;;;;;14.23;9.73;;;;;;;;;;5012966;28;20208;-59
2022/05/01 00:46:27;;;;;;;14.02;10.20;;;;;;;;;;5030350;28;20223;-59
2022/05/01 00:48:53;;;;;;;15.77;10.10;;;;;;;;;;5020623;28;20731;-59
2022/05/01 00:51:18;;;;;;;15.13;10.48;;;;;;;;;;5020584;28;20223;-59
2022/05/01 00:53:43;;;;;;;19.30;10.15;;;;;;;;;;5021928;28;20714;-59
2022/05/01 00:56:09;;;;;;;13.38;10.35;;;;;;;;;;5035908;28;20685;-59
2022/05/01 00:58:34;;;;;;;13.93;9.48;;;;;;;;;;5003819;28;20667;-59
2022/05/01 01:00:59;;;;;;;15.35;9.82;;;;;;;;;;5004495;28;20204;-59
2022/05/01 01:03:24;;;;;;;13.80;10.27;;;;;;;;;;4999059;28;20809;-59
2022/05/01 01:05:50;;;;;;;13.60;9.93;;;;;;;;;;5013002;28;20223;-59
2022/05/01 01:08:15;;;;;;;13.90;10.05;;;;;;;;;;5014502;28;20273;-59
2022/05/01 01:10:40;;;;;;;13.77;10.63;;;;;;;;;;5021776;28;20208;-59
2022/05/01 01:13:05;;;;;;;13.85;10.30;;;;;;;;;;5039133;28;20219;-60
2022/05/01 01:15:31;;;;;;;16.85;10.68;;;;;;;;;;5025620;28;20220;-59
2022/05/01 01:17:57;;;;;;;16.92;11.32;;;;;;;;;;5025715;28;20634;-59
2022/05/01 01:20:23;;;;;;;17.38;10.55;;;;;;;;;;5024115;28;20203;-59
2022/05/01 01:22:50;;;;;;;15.75;10.18;;;;;;;;;;5007493;28;20246;-59
2022/05/01 01:25:17;;;;;;;15.30;11.18;;;;;;;;;;5041709;28;20561;-59
2022/05/01 01:27:42;;;;;;;16.15;11.05;;;;;;;;;;5036482;28;20218;-59
2022/05/01 01:32:51;;;;;;;16.13;10.38;;;;;;;;;;5038882;28;20575;-59
2022/05/01 01:35:18;;;;;;;16.50;11.40;;;;;;;;;;5044416;28;20227;-59
2022/05/01 01:37:45;;;;;;;16.58;11.52;;;;;;;;;;5027208;28;20211;-59
2022/05/01 01:40:10;;;;;;;18.45;11.27;;;;;;;;;;5013419;28;20227;-59
2022/05/01 01:42:36;;;;;;;16.23;11.90;;;;;;;;;;5044520;28;20219;-59
2022/05/01 01:45:01;;;;;;;13.75;10.45;;;;;;;;;;5043972;28;20219;-60
2022/05/01 01:47:26;;;;;;;15.98;11.80;;;;;;;;;;5032255;28;20207;-59
2022/05/01 01:49:52;;;;;;;15.60;11.70;;;;;;;;;;5016831;28;20222;-59
2022/05/01 01:52:17;;;;;;;14.15;10.50;;;;;;;;;;5016315;28;20309;-60
2022/05/01 01:54:42;;;;;;;15.98;11.48;;;;;;;;;;5031018;28;20228;-59
2022/05/01 01:57:08;;;;;;;15.07;11.57;;;;;;;;;;5023528;28;20207;-59
2022/05/01 01:59:33;;;;;;;13.25;10.88;;;;;;;;;;5024627;28;20211;-60
2022/05/01 02:01:58;;;;;;;18.90;11.70;;;;;;;;;;5024074;28;20338;-60
2022/05/01 02:04:23;;;;;;;19.10;12.32;;;;;;;;;;5024270;28;20212;-59
2022/05/01 02:06:49;;;;;;;15.20;11.73;;;;;;;;;;5024599;28;20244;-59
2022/05/01 02:09:15;;;;;;;14.77;11.32;;;;;;;;;;5023363;28;20554;-60
2022/05/01 02:11:41;;;;;;;16.08;12.25;;;;;;;;;;5038060;28;20277;-60
2022/05/01 02:14:06;;;;;;;16.67;12.02;;;;;;;;;;5035196;28;20326;-60
2022/05/01 02:16:31;;;;;;;13.77;11.68;;;;;;;;;;4999227;28;20616;-60
2022/05/01 02:18:57;;;;;;;15.35;11.80;;;;;;;;;;5021519;28;20211;-60
2022/05/01 02:21:35;;;;;;;16.25;11.43;;;;;;;;;;5042438;28;20210;-60
2022/05/01 02:24:01;;;;;;;15.10;11.73;;;;;;;;;;5042971;28;20734;-59
2022/05/01 02:26:27;;;;;;;16.00;11.63;;;;;;;;;;5023258;28;20215;-59
2022/05/01 02:28:52;;;;;;;17.02;11.93;;;;;;;;;;5023181;28;20211;-59
2022/05/01 02:31:18;;;;;;;17.45;11.90;;;;;;;;;;5023648;28;20322;-59
2022/05/01 02:33:44;;;;;;;16.33;12.02;;;;;;;;;;5020649;28;20265;-59
2022/05/01 02:36:10;;;;;;;17.45;12.30;;;;;;;;;;5014496;28;20220;-59
2022/05/01 02:38:36;;;;;;;17.58;12.45;;;;;;;;;;5015859;28;20207;-59
2022/05/01 02:41:01;;;;;;;16.77;12.85;;;;;;;;;;4998991;28;20654;-60
2022/05/01 02:43:27;;;;;;;16.55;11.77;;;;;;;;;;5003650;28;20209;-59
2022/05/01 02:45:52;;;;;;;16.05;11.73;;;;;;;;;;5003900;28;20620;-59
2022/05/01 02:48:17;;;;;;;15.48;11.85;;;;;;;;;;5004259;28;20714;-60
2022/05/01 02:50:43;;;;;;;18.90;12.32;;;;;;;;;;5003429;28;20777;-60
2022/05/01 02:53:08;;;;;;;18.33;11.57;;;;;;;;;;5020936;28;20326;-60
2022/05/01 02:55:33;;;;;;;19.63;12.05;;;;;;;;;;5022874;28;20335;-60
2022/05/01 02:57:59;;;;;;;18.63;12.40;;;;;;;;;;5001416;28;20480;-60
2022/05/01 03:00:24;;;;;;;17.38;12.68;;;;;;;;;;4995537;28;20208;-59
2022/05/01 03:02:49;;;;;;;16.13;11.73;;;;;;;;;;4997014;28;20443;-59
2022/05/01 03:05:15;;;;;;;16.48;12.15;;;;;;;;;;5021408;28;20222;-60
2022/05/01 03:07:40;;;;;;;16.85;12.45;;;;;;;;;;5022064;28;20251;-59
2022/05/01 03:10:06;;;;;;;17.77;12.80;;;;;;;;;;5022735;28;20594;-60
2022/05/01 03:12:31;;;;;;;16.33;11.68;;;;;;;;;;5022327;28;20222;-59
2022/05/01 03:14:57;;;;;;;16.20;11.43;;;;;;;;;;5018273;28;20714;-59
2022/05/01 03:17:23;;;;;;;17.40;12.60;;;;;;;;;;5003411;28;20212;-59
2022/05/01 03:22:32;;;;;;;14.30;11.48;;;;;;;;;;5014578;28;20246;-60
2022/05/01 03:24:58;;;;;;;17.35;12.57;;;;;;;;;;5015256;28;20993;-61
2022/05/01 03:27:23;;;;;;;16.55;12.32;;;;;;;;;;5019647;28;20560;-61
2022/05/01 03:30:15;;;;;;;18.15;12.70;;;;;;;;;;5022674;28;20203;-60
2022/05/01 03:32:33;;;;;;;19.30;12.38;;;;;;;;;;5021242;28;20616;-60
2022/05/01 03:34:59;;;;;;;18.85;12.98;;;;;;;;;;5021482;28;20516;-60
2022/05/01 03:37:24;;;;;;;16.60;12.18;;;;;;;;;;5021170;28;20211;-61
2022/05/01 03:39:49;;;;;;;17.25;11.95;;;;;;;;;;5012050;28;20715;-61
2022/05/01 03:42:15;;;;;;;16.13;11.07;;;;;;;;;;4998652;28;20212;-60
2022/05/01 03:44:40;;;;;;;15.88;12.18;;;;;;;;;;5025904;28;20762;-60
2022/05/01 03:47:05;;;;;;;19.00;12.25;;;;;;;;;;5022983;28;20216;-60
2022/05/01 03:49:30;;;;;;;17.42;12.10;;;;;;;;;;5018278;28;20283;-60
2022/05/01 03:51:56;;;;;;;17.73;12.13;;;;;;;;;;5022527;28;20604;-60
2022/05/01 03:54:22;;;;;;;14.95;11.68;;;;;;;;;;5040556;28;20218;-60
2022/05/01 03:56:47;;;;;;;15.70;11.50;;;;;;;;;;5038941;28;20741;-60
2022/05/01 03:59:12;;;;;;;16.77;12.43;;;;;;;;;;5021617;28;20242;-60
2022/05/01 04:01:38;;;;;;;14.68;11.05;;;;;;;;;;5032390;28;20219;-60
2022/05/01 04:04:04;;;;;;;17.50;12.13;;;;;;;;;;5020712;28;20243;-60
2022/05/01 04:06:29;;;;;;;15.90;11.60;;;;;;;;;;5033615;28;20357;-61
2022/05/01 04:08:55;;;;;;;17.77;11.23;;;;;;;;;;5033041;28;20213;-61
2022/05/01 04:11:20;;;;;;;14.60;11.93;;;;;;;;;;5034529;28;20586;-61
2022/05/01 04:13:46;;;;;;;16.00;11.82;;;;;;;;;;5041894;28;20246;-61
2022/05/01 04:16:11;;;;;;;16.30;11.98;;;;;;;;;;5019080;28;20263;-61
2022/05/01 04:18:37;;;;;;;16.95;11.77;;;;;;;;;;5022468;28;20216;-61
2022/05/01 04:21:02;;;;;;;18.95;12.52;;;;;;;;;;5021744;28;20215;-61
2022/05/01 04:23:27;;;;;;;16.15;11.95;;;;;;;;;;5021912;28;20662;-61
2022/05/01 04:25:53;;;;;;;18.70;13.00;;;;;;;;;;5023369;28;20223;-60
2022/05/01 04:28:18;;;;;;;17.98;11.95;;;;;;;;;;5034559;28;20706;-61
2022/05/01 04:30:44;;;;;;;19.63;12.43;;;;;;;;;;5032902;28;20743;-60
2022/05/01 04:33:11;;;;;;;18.92;12.00;;;;;;;;;;5014290;28;20314;-61
2022/05/01 04:35:40;;;;;;;17.08;11.25;;;;;;;;;;5039192;28;20889;-61
2022/05/01 04:38:07;;;;;;;15.82;12.30;;;;;;;;;;5023739;28;20214;-61
2022/05/01 04:40:34;;;;;;;16.95;12.02;;;;;;;;;;5020588;28;20211;-61
2022/05/01 04:43:03;;;;;;;21.35;12.63;;;;;;;;;;5007295;28;20306;-61
2022/05/01 04:45:29;;;;;;;15.38;11.70;;;;;;;;;;5025274;28;20211;-61
2022/05/01 04:47:55;;;;;;;17.35;11.63;;;;;;;;;;5010464;28;20208;-61
2022/05/01 04:50:20;;;;;;;15.82;12.30;;;;;;;;;;5000620;28;20798;-61
2022/05/01 04:52:45;;;;;;;15.30;11.13;;;;;;;;;;4997870;28;20271;-61
2022/05/01 04:55:11;;;;;;;18.02;12.20;;;;;;;;;;5006708;28;20234;-61
2022/05/01 04:57:37;;;;;;;16.45;11.50;;;;;;;;;;5012674;28;20208;-61
2022/05/01 05:00:04;;;;;;;16.92;12.02;;;;;;;;;;5025024;28;20211;-61
2022/05/01 05:02:34;;;;;;;18.23;12.07;;;;;;;;;;5029530;28;20227;-60
2022/05/01 05:04:59;;;;;;;15.65;12.07;;;;;;;;;;5044380;28;20219;-61
2022/05/01 05:07:25;;;;;;;19.17;12.80;;;;;;;;;;5043608;28;20574;-62
2022/05/01 05:09:56;;;;;;;17.45;12.63;;;;;;;;;;5027514;28;20245;-61
2022/05/01 05:12:22;;;;;;;16.30;12.75;;;;;;;;;;5041021;28;20300;-62
2022/05/01 05:14:49;;;;;;;15.88;12.15;;;;;;;;;;5016234;28;20232;-63
2022/05/01 05:17:18;;;;;;;16.70;11.57;;;;;;;;;;5036090;28;20221;-61
2022/05/01 05:19:43;;;;;;;18.42;12.18;;;;;;;;;;5038945;28;20214;-60
2022/05/01 05:22:08;;;;;;;18.27;13.05;;;;;;;;;;5044282;28;20215;-61
2022/05/01 05:24:33;;;;;;;17.30;12.10;;;;;;;;;;5031576;28;20244;-61
2022/05/01 05:26:59;;;;;;;16.40;12.37;;;;;;;;;;5046473;28;20421;-59
2022/05/01 05:29:24;;;;;;;18.35;13.27;;;;;;;;;;5054744;28;20273;-61
2022/05/01 05:31:49;;;;;;;18.00;14.23;;;;;;;;;;5053343;28;20447;-61
2022/05/01 05:34:15;;;;;;;17.98;13.02;;;;;;;;;;5051013;28;20199;-59
2022/05/01 05:36:40;;;;;;;17.35;13.48;;;;;;;;;;5043892;28;20581;-60
2022/05/01 05:39:05;;;;;;;16.73;13.13;;;;;;;;;;5035562;28;20214;-59
2022/05/01 05:41:30;;;;;;;17.45;12.93;;;;;;;;;;5054615;28;20312;-60
2022/05/01 05:43:56;;;;;;;15.85;12.50;;;;;;;;;;5054334;28;20203;-60
2022/05/01 05:46:21;;;;;;;16.90;12.25;;;;;;;;;;5035036;28;20211;-60
2022/05/01 05:48:46;;;;;;;16.10;12.70;;;;;;;;;;5054253;28;20801;-60
2022/05/01 05:51:11;;;;;;;15.52;12.02;;;;;;;;;;5054120;28;20222;-60
2022/05/01 05:53:37;;;;;;;16.50;12.73;;;;;;;;;;5053051;28;20239;-59
2022/05/01 05:56:02;;;;;;;20.40;13.90;;;;;;;;;;5052739;28;20567;-60
2022/05/01 05:58:27;;;;;;;19.02;13.75;;;;;;;;;;5036733;28;20211;-60
2022/05/01 06:00:53;;;;;;;16.95;13.43;;;;;;;;;;5036224;28;20212;-60
2022/05/01 06:03:19;;;;;;;16.67;12.13;;;;;;;;;;5053947;28;20219;-59
2022/05/01 06:05:45;;;;;;;19.10;13.05;;;;;;;;;;5054454;28;20239;-60
2022/05/01 06:08:10;;;;;;;17.65;13.25;;;;;;;;;;5035475;28;20234;-61
2022/05/01 06:10:35;;;;;;;18.88;13.77;;;;;;;;;;5054510;28;20219;-60
2022/05/01 06:13:01;;;;;;;18.93;14.80;;;;;;;;;;5053090;28;20822;-60
2022/05/01 06:15:26;;;;;;;19.63;14.57;;;;;;;;;;5049597;28;20211;-60
2022/05/01 06:17:51;;;;;;;20.73;13.57;;;;;;;;;;5053890;28;20302;-60
2022/05/01 06:20:17;;;;;;;16.88;12.35;;;;;;;;;;5053712;28;20660;-59
2022/05/01 06:22:42;;;;;;;16.52;13.18;;;;;;;;;;5053486;28;20203;-60
2022/05/01 06:25:08;;;;;;;17.85;13.13;;;;;;;;;;5028615;28;20212;-59
2022/05/01 06:27:33;;;;;;;19.67;13.43;;;;;;;;;;5044308;28;20214;-60
2022/05/01 06:29:58;;;;;;;20.33;12.82;;;;;;;;;;5042468;28;20303;-59
2022/05/01 06:32:24;;;;;;;16.75;13.15;;;;;;;;;;5039499;28;20219;-61
2022/05/01 06:34:49;;;;;;;16.88;12.95;;;;;;;;;;5017212;28;20573;-61
2022/05/01 06:37:14;;;;;;;17.40;12.32;;;;;;;;;;5028142;28;20286;-60
2022/05/01 06:39:39;;;;;;;19.25;12.70;;;;;;;;;;5034084;28;20212;-59
2022/05/01 06:42:05;;;;;;;16.55;13.23;;;;;;;;;;5032930;28;20216;-60
2022/05/01 06:44:31;;;;;;;18.10;12.82;;;;;;;;;;5033929;28;20266;-60
2022/05/01 06:46:56;;;;;;;19.10;12.75;;;;;;;;;;5033577;28;20219;-61
2022/05/01 06:49:21;;;;;;;19.92;13.75;;;;;;;;;;5032440;28;20219;-60
2022/05/01 06:51:46;;;;;;;18.58;14.07;;;;;;;;;;5033963;28;20218;-60
2022/05/01 06:54:12;;;;;;;17.55;13.05;;;;;;;;;;5033039;28;20232;-60
2022/05/01 06:56:37;;;;;;;17.77;13.07;;;;;;;;;;5035301;28;20263;-59
2022/05/01 06:59:02;;;;;;;21.02;13.60;;;;;;;;;;5053062;28;20207;-58
2022/05/01 07:01:28;;;;;;;18.42;13.23;;;;;;;;;;5046086;28;20206;-59
2022/05/01 07:03:53;;;;;;;17.77;12.90;;;;;;;;;;5032304;28;20702;-61
2022/05/01 07:06:18;;;;;;;19.27;13.27;;;;;;;;;;5032918;28;20216;-60
2022/05/01 07:08:43;;;;;;;18.42;13.25;;;;;;;;;;5033152;28;20210;-60
2022/05/01 07:11:09;;;;;;;15.77;12.82;;;;;;;;;;5032307;28;20242;-60
2022/05/01 07:13:35;;;;;;;19.92;12.95;;;;;;;;;;5033343;28;20299;-60
2022/05/01 07:16:01;;;;;;;16.48;13.25;;;;;;;;;;5032921;28;20227;-60
2022/05/01 07:18:26;;;;;;;18.15;13.45;;;;;;;;;;5014430;28;20214;-60
2022/05/01 07:20:51;;;;;;;16.15;13.77;;;;;;;;;;5033294;28;20222;-60
2022/05/01 07:23:21;;;;;;;18.55;13.38;;;;;;;;;;5032611;28;20207;-59
2022/05/01 07:25:47;;;;;;;20.98;14.23;;;;;;;;;;5032402;28;20303;-60
2022/05/01 07:28:12;;;;;;;17.85;13.88;;;;;;;;;;5032707;28;20231;-60
2022/05/01 07:30:37;;;;;;;18.30;13.68;;;;;;;;;;5015620;28;20222;-60
2022/05/01 07:33:03;;;;;;;17.40;14.15;;;;;;;;;;5031375;28;20702;-60
2022/05/01 07:35:28;;;;;;;17.55;13.43;;;;;;;;;;5033607;28;20235;-60
2022/05/01 07:37:53;;;;;;;16.95;14.00;;;;;;;;;;5041529;28;20207;-60
2022/05/01 07:40:24;;;;;;;19.25;13.57;;;;;;;;;;5031532;28;20654;-59
2022/05/01 07:42:49;;;;;;;19.85;13.45;;;;;;;;;;5032955;28;20220;-60
2022/05/01 07:45:14;;;;;;;16.52;13.18;;;;;;;;;;5032312;28;20250;-62
2022/05/01 07:47:39;;;;;;;19.65;13.77;;;;;;;;;;5032177;28;20212;-59
2022/05/01 07:50:06;;;;;;;19.10;13.35;;;;;;;;;;5032052;28;20598;-60
2022/05/01 07:52:32;;;;;;;18.08;13.50;;;;;;;;;;5031974;28;20238;-60
2022/05/01 07:54:57;;;;;;;18.75;13.48;;;;;;;;;;5032537;28;20710;-60
2022/05/01 07:57:26;;;;;;;18.05;13.57;;;;;;;;;;5040906;28;20206;-59
2022/05/01 07:59:51;;;;;;;17.38;13.23;;;;;;;;;;5050897;28;20223;-60
2022/05/01 08:02:17;;;;;;;17.60;13.27;;;;;;;;;;5035163;28;20216;-60
2022/05/01 08:04:42;;;;;;;17.85;13.63;;;;;;;;;;5029701;28;20215;-60
2022/05/01 08:07:09;;;;;;;20.33;13.80;;;;;;;;;;5028945;28;20777;-60
2022/05/01 08:09:35;;;;;;;18.45;13.38;;;;;;;;;;5029832;28;20211;-60
2022/05/01 08:12:00;;;;;;;21.20;14.90;;;;;;;;;;5030358;28;20713;-60
2022/05/01 08:14:26;;;;;;;17.25;14.07;;;;;;;;;;5028798;28;20215;-59
2022/05/01 08:16:51;;;;;;;19.85;13.32;;;;;;;;;;5029973;28;20238;-59
2022/05/01 08:22:00;;;;;;;18.27;12.70;;;;;;;;;;5029592;28;20590;-58
2022/05/01 08:24:25;;;;;;;16.23;12.13;;;;;;;;;;5029311;28;20282;-60
2022/05/01 08:26:50;;;;;;;17.05;13.00;;;;;;;;;;5034512;28;20788;-59
2022/05/01 08:29:16;;;;;;;16.10;11.88;;;;;;;;;;5039533;28;20238;-58
2022/05/01 08:31:42;;;;;;;17.10;12.93;;;;;;;;;;5028178;28;20227;-61
2022/05/01 08:34:08;;;;;;;16.77;13.25;;;;;;;;;;5029326;28;20230;-62
2022/05/01 08:36:34;;;;;;;16.73;12.48;;;;;;;;;;5038452;28;20227;-57
2022/05/01 08:38:59;;;;;;;16.25;12.02;;;;;;;;;;5030096;28;20212;-60
2022/05/01 08:41:25;;;;;;;16.00;12.23;;;;;;;;;;5029458;28;20266;-61
2022/05/01 08:43:51;;;;;;;17.80;13.32;;;;;;;;;;5011937;28;20208;-58
2022/05/01 08:46:19;;;;;;;16.70;12.70;;;;;;;;;;5011656;28;20212;-58
2022/05/01 08:48:45;;;;;;;16.52;11.90;;;;;;;;;;5029465;28;20215;-60
2022/05/01 08:51:10;;;;;;;16.85;12.50;;;;;;;;;;5029326;28;20215;-62
2022/05/01 08:53:36;;;;;;;18.75;13.65;;;;;;;;;;5012130;28;20589;-57
2022/05/01 08:56:02;;;;;;;16.98;12.32;;;;;;;;;;5010949;28;20224;-58
2022/05/01 08:58:28;;;;;;;15.23;11.68;;;;;;;;;;5047479;28;20302;-58
2022/05/01 09:00:53;;;;;;;15.10;10.90;;;;;;;;;;5046847;28;20219;-59
2022/05/01 09:03:18;;;;;;;15.23;11.30;;;;;;;;;;5028760;28;20620;-59
2022/05/01 09:05:44;;;;;;;16.70;10.90;;;;;;;;;;5029792;28;20214;-59
2022/05/01 09:08:09;;;;;;;17.38;11.27;;;;;;;;;;5029504;28;20231;-59
2022/05/01 09:10:34;;;;;;;15.27;11.05;;;;;;;;;;5029126;28;20790;-58
2022/05/01 09:12:59;;;;;;;14.98;10.75;;;;;;;;;;5030007;28;20215;-58
2022/05/01 09:15:32;;;;;;;14.70;11.45;;;;;;;;;;5029059;28;20708;-58
2022/05/01 09:17:58;;;;;;;17.35;12.10;;;;;;;;;;5029087;28;20702;-58
2022/05/01 09:20:23;;;;;;;13.82;11.27;;;;;;;;;;5028977;28;20212;-59
2022/05/01 09:22:50;;;;;;;15.80;11.80;;;;;;;;;;5029902;28;20637;-58
2022/05/01 09:25:16;;;;;;;15.40;11.50;;;;;;;;;;5028600;28;20218;-58
2022/05/01 09:27:41;;;;;;;15.10;11.23;;;;;;;;;;5029786;28;20204;-58
2022/05/01 09:30:08;;;;;;;15.52;11.07;;;;;;;;;;5029720;28;20238;-59
2022/05/01 09:32:36;;;;;;;13.95;11.50;;;;;;;;;;5043784;28;20365;-58
2022/05/01 09:35:01;;;;;;;15.85;11.23;;;;;;;;;;5033854;28;20238;-58
2022/05/01 09:37:26;;;;;;;15.00;11.43;;;;;;;;;;5039278;28;20226;-58
2022/05/01 09:39:52;;;;;;;13.70;10.57;;;;;;;;;;5039543;28;20207;-58
2022/05/01 09:42:19;;;;;;;14.45;10.85;;;;;;;;;;5047104;28;20222;-58
2022/05/01 09:44:44;;;;;;;14.02;11.10;;;;;;;;;;5047151;28;20218;-58
2022/05/01 09:47:09;;;;;;;15.65;11.23;;;;;;;;;;5027252;28;20211;-58
2022/05/01 09:49:48;;;;;;;14.32;10.65;;;;;;;;;;5028534;28;20222;-58
2022/05/01 09:52:13;;;;;;;16.55;10.52;;;;;;;;;;5045900;28;20240;-58
2022/05/01 09:54:38;;;;;;;19.23;10.93;;;;;;;;;;5047074;28;20932;-58
2022/05/01 09:57:05;;;;;;;12.43;9.90;;;;;;;;;;5040073;28;20412;-58
2022/05/01 09:59:30;;;;;;;13.20;10.10;;;;;;;;;;5038628;28;20453;-58
2022/05/01 10:02:02;;;;;;;13.43;10.68;;;;;;;;;;5016723;28;20225;-58
2022/05/01 10:04:27;;;;;;;14.10;10.02;;;;;;;;;;5065259;28;20214;-58
2022/05/01 10:06:53;;;;;;;13.73;9.60;;;;;;;;;;5065235;28;20673;-58
2022/05/01 10:09:19;;;;;;;11.55;9.07;;;;;;;;;;5065350;28;20233;-58
2022/05/01 10:11:45;;;;;;;13.02;9.27;;;;;;;;;;5066071;28;20645;-58
2022/05/01 10:14:10;;;;;;;11.23;8.27;;;;;;;;;;5046878;28;20210;-59
2022/05/01 10:16:35;;;;;;;10.38;7.88;;;;;;;;;;5065934;28;20272;-58
2022/05/01 10:19:01;;;;;;;8.70;6.65;;;;;;;;;;5061789;28;20418;-59
2022/05/01 10:21:28;;;;;;;9.75;6.75;;;;;;;;;;5057346;28;20293;-58
2022/05/01 10:23:53;;;;;;;9.00;6.70;;;;;;;;;;5040512;28;20222;-58
2022/05/01 10:26:34;;;;;;;10.00;6.65;;;;;;;;;;5062026;28;20214;-58
2022/05/01 10:29:07;;;;;;;12.18;8.85;;;;;;;;;;5064996;28;20313;-58
2022/05/01 10:34:38;;;;;;;9.77;5.97;;;;;;;;;;5036564;28;20272;-58
2022/05/01 10:37:04;;;;;;;10.27;7.10;;;;;;;;;;5051018;28;20211;-58
2022/05/01 10:39:33;;;;;;;7.32;5.35;;;;;;;;;;5034127;28;20238;-58
2022/05/01 10:41:58;;;;;;;8.55;5.15;;;;;;;;;;5029487;28;20223;-58
2022/05/01 10:44:24;;;;;;;7.30;4.97;;;;;;;;;;5031165;28;20215;-58
2022/05/01 10:47:05;;;;;;;7.07;4.80;;;;;;;;;;5031820;28;20659;-58
2022/05/01 10:49:32;;;;;;;7.97;5.32;;;;;;;;;;5030781;28;20261;-58
2022/05/01 10:52:01;;;;;;;9.45;4.93;;;;;;;;;;5030384;28;20211;-58
2022/05/01 10:54:30;;;;;;;6.80;4.28;;;;;;;;;;5010112;28;20289;-59
2022/05/01 10:57:04;;;;;;;6.68;5.00;;;;;;;;;;5011046;28;20570;-58
2022/05/01 10:59:29;;;;;;;10.07;4.88;;;;;;;;;;5031223;28;20683;-58
2022/05/01 11:01:56;;;;;;;6.45;4.90;;;;;;;;;;5020469;28;20215;-58
2022/05/01 11:04:21;;;;;;;7.90;4.50;;;;;;;;;;5010708;28;20220;-58
2022/05/01 11:06:48;;;;;;;8.55;5.32;;;;;;;;;;5011640;28;20567;-58
2022/05/01 11:09:14;;;;;;;7.20;4.90;;;;;;;;;;5030434;28;20219;-58
2022/05/01 11:11:39;;;;;;;7.93;4.30;;;;;;;;;;5030269;28;20214;-58
2022/05/01 11:14:05;;;;;;;7.18;4.72;;;;;;;;;;5030694;28;20212;-59
2022/05/01 11:16:49;;;;;;;7.72;4.93;;;;;;;;;;5029777;28;20311;-59
2022/05/01 11:19:14;;;;;;;6.00;4.45;;;;;;;;;;5013102;28;20554;-59
2022/05/01 11:21:39;;;;;;;7.97;4.38;;;;;;;;;;5031015;28;20719;-58
2022/05/01 11:24:05;;;;;;;7.88;4.90;;;;;;;;;;5011946;28;20219;-59
2022/05/01 11:26:30;;;;;;;6.15;4.57;;;;;;;;;;5030857;28;20588;-58
2022/05/01 11:29:13;;;;;;;9.88;4.80;;;;;;;;;;5031045;28;20219;-59
2022/05/01 11:31:39;;;;;;;8.35;5.63;;;;;;;;;;5009203;28;20212;-67
2022/05/01 11:34:16;;;;;;;7.25;5.63;;;;;;;;;;5010849;28;20212;-66
2022/05/01 11:36:50;;;;;;;9.30;5.63;;;;;;;;;;5005195;28;20231;-67
2022/05/01 11:39:16;;;;;;;7.00;4.35;;;;;;;;;;5009584;28;20240;-66
2022/05/01 11:41:42;;;;;;;7.50;5.25;;;;;;;;;;5010971;28;20675;-67
2022/05/01 11:44:20;;;;;;;7.80;5.88;;;;;;;;;;5010089;28;20580;-66
2022/05/01 11:46:47;;;;;;;9.13;6.90;;;;;;;;;;5010330;28;20200;-68
2022/05/01 11:49:12;;;;;;;8.43;5.95;;;;;;;;;;5025675;28;20306;-65
2022/05/01 11:51:38;;;;;;;8.77;4.82;;;;;;;;;;5025376;28;20294;-66
2022/05/01 11:54:04;;;;;;;8.32;6.25;;;;;;;;;;5024482;28;20702;-67
2022/05/01 12:02:30;;;;;;;11.07;6.20;;;;;;;;;;4987565;28;20698;-68
2022/05/01 12:05:04;;;;;;;10.07;6.85;;;;;;;;;;4997485;28;20715;-65
2022/05/01 12:07:29;;;;;;;9.75;6.22;;;;;;;;;;5021640;28;20207;-67
2022/05/01 12:09:55;;;;;;;10.10;6.85;;;;;;;;;;5030197;28;20651;-66
2022/05/01 12:12:20;;;;;;;9.05;6.35;;;;;;;;;;5009405;28;20611;-67
2022/05/01 12:14:46;;;;;;;7.97;5.97;;;;;;;;;;5009861;28;20224;-67
2022/05/01 12:17:14;;;;;;;8.05;5.70;;;;;;;;;;5025323;28;20354;-66
2022/05/01 12:19:40;;;;;;;8.27;6.40;;;;;;;;;;5025003;28;20216;-65
2022/05/01 12:22:07;;;;;;;8.35;6.05;;;;;;;;;;5025104;28;20216;-68
2022/05/01 12:24:33;;;;;;;7.80;5.30;;;;;;;;;;5025493;28;20320;-68
2022/05/01 12:26:58;;;;;;;7.88;5.53;;;;;;;;;;5009645;28;20335;-67
2022/05/01 12:29:23;;;;;;;8.10;6.00;;;;;;;;;;5025319;28;20288;-67
2022/05/01 12:31:53;;;;;;;9.25;6.05;;;;;;;;;;5010581;28;20211;-67
2022/05/01 12:34:25;;;;;;;9.75;6.70;;;;;;;;;;5009495;28;20220;-66
2022/05/01 12:36:54;;;;;;;9.32;5.80;;;;;;;;;;5010370;28;20307;-65
2022/05/01 12:39:19;;;;;;;8.38;5.75;;;;;;;;;;5009637;28;20219;-65
2022/05/01 12:45:01;;;;;;;9.02;6.60;;;;;;;;;;5039109;28;20207;-68
2022/05/01 12:47:31;;;;;;;10.77;6.40;;;;;;;;;;5028595;28;20203;-66
2022/05/01 12:49:56;;;;;;;8.32;6.05;;;;;;;;;;5028225;28;20270;-66
2022/05/01 12:52:29;;;;;;;10.02;6.03;;;;;;;;;;5021309;28;20223;-68
2022/05/01 12:55:07;;;;;;;8.93;6.75;;;;;;;;;;5028979;28;20232;-66
2022/05/01 12:57:34;;;;;;;7.82;6.30;;;;;;;;;;5008787;28;20239;-65
2022/05/01 12:59:59;;;;;;;11.35;7.00;;;;;;;;;;5009090;28;20209;-66
2022/05/01 13:02:24;;;;;;;9.95;6.88;;;;;;;;;;4992953;28;20212;-65
2022/05/01 13:04:57;;;;;;;9.73;6.65;;;;;;;;;;5007893;28;20570;-65
2022/05/01 13:07:29;;;;;;;10.57;7.03;;;;;;;;;;4994112;28;20279;-67
2022/05/01 13:09:54;;;;;;;12.02;7.65;;;;;;;;;;5008538;28;20288;-67
2022/05/01 13:12:30;;;;;;;10.82;7.30;;;;;;;;;;4993632;28;20402;-66
2022/05/01 13:14:57;;;;;;;13.15;7.80;;;;;;;;;;5009104;28;20236;-66
2022/05/01 13:17:23;;;;;;;9.57;7.38;;;;;;;;;;5008193;28;20284;-65
2022/05/01 13:19:48;;;;;;;8.65;6.82;;;;;;;;;;4994340;28;20308;-67
2022/05/01 13:22:13;;;;;;;11.02;7.30;;;;;;;;;;4993785;28;20209;-67
2022/05/01 13:24:39;;;;;;;9.10;6.55;;;;;;;;;;4993668;28;20300;-67
2022/05/01 13:27:05;;;;;;;8.93;6.60;;;;;;;;;;5008254;28;20300;-67
2022/05/01 13:29:31;;;;;;;9.88;6.88;;;;;;;;;;4993948;28;20244;-66
2022/05/01 13:31:58;;;;;;;7.97;5.60;;;;;;;;;;5008426;28;20225;-65
2022/05/01 13:34:24;;;;;;;8.90;5.75;;;;;;;;;;4993626;28;20205;-66
2022/05/01 13:36:49;;;;;;;10.35;6.38;;;;;;;;;;4993921;28;20231;-67
2022/05/01 13:39:15;;;;;;;10.57;7.13;;;;;;;;;;4992882;28;20240;-68
2022/05/01 13:47:08;;;;;;;10.82;7.28;;;;;;;;;;5012772;28;20215;-68
2022/05/01 13:49:34;;;;;;;11.13;7.88;;;;;;;;;;5005891;28;20220;-59
2022/05/01 13:51:59;;;;;;;11.57;7.50;;;;;;;;;;5004168;28;20607;-59
2022/05/01 13:54:25;;;;;;;8.85;6.65;;;;;;;;;;5023208;28;20912;-59
2022/05/01 13:56:50;;;;;;;11.43;7.47;;;;;;;;;;5021443;28;20220;-59
2022/05/01 13:59:15;;;;;;;10.88;7.50;;;;;;;;;;5017438;28;20200;-60
2022/05/01 14:01:42;;;;;;;9.18;7.25;;;;;;;;;;4997153;28;20235;-60
2022/05/01 14:04:07;;;;;;;9.93;7.25;;;;;;;;;;5015875;28;20906;-60
2022/05/01 14:06:32;;;;;;;12.20;7.07;;;;;;;;;;5021819;28;20283;-60
2022/05/01 14:08:58;;;;;;;10.20;6.95;;;;;;;;;;5023928;28;20211;-60
2022/05/01 14:11:24;;;;;;;10.35;7.32;;;;;;;;;;5022710;28;20219;-60
2022/05/01 14:13:50;;;;;;;11.27;7.45;;;;;;;;;;5005802;28;20245;-59
2022/05/01 14:16:17;;;;;;;12.68;8.23;;;;;;;;;;5022226;28;20303;-60
2022/05/01 14:18:42;;;;;;;10.05;7.68;;;;;;;;;;5024201;28;20215;-60
2022/05/01 14:21:08;;;;;;;11.05;8.02;;;;;;;;;;5004083;28;20282;-60
2022/05/01 14:23:33;;;;;;;12.02;8.15;;;;;;;;;;5018897;28;20277;-60
2022/05/01 14:25:59;;;;;;;10.63;8.60;;;;;;;;;;5018273;28;20285;-60
2022/05/01 14:28:24;;;;;;;11.93;8.27;;;;;;;;;;5018027;28;20213;-58
2022/05/01 14:31:01;;;;;;;10.50;8.00;;;;;;;;;;5007039;28;20223;-59
2022/05/01 14:33:38;;;;;;;11.20;7.95;;;;;;;;;;4985421;28;20212;-59
2022/05/01 14:36:03;;;;;;;10.50;8.55;;;;;;;;;;5005462;28;20228;-59
2022/05/01 14:38:32;;;;;;;12.27;7.88;;;;;;;;;;5001290;28;20215;-59
2022/05/01 14:41:01;;;;;;;10.80;8.35;;;;;;;;;;5017220;28;20703;-59
2022/05/01 14:43:29;;;;;;;11.20;8.27;;;;;;;;;;5001544;28;20603;-60
2022/05/01 14:45:56;;;;;;;11.88;8.13;;;;;;;;;;5015146;28;20673;-59
2022/05/01 14:48:23;;;;;;;11.20;8.30;;;;;;;;;;4998003;28;20768;-59